createdAt,value
2018-02-16T00:01:08.761Z,30.20
2018-02-16T00:03:37.146Z,29.65
2018-02-16T00:06:05.534Z,28.80
2018-02-16T00:08:34.315Z,28.87
2018-02-16T00:11:02.677Z,28.40
2018-02-16T00:13:31.056Z,27.35
2018-02-16T00:15:59.439Z,27.30
2018-02-16T00:18:27.801Z,30.88
2018-02-16T00:20:56.217Z,29.63
2018-02-16T00:23:24.596Z,28.15
2018-02-16T00:25:53.029Z,30.45
2018-02-16T00:28:21.393Z,30.75
2018-02-16T00:30:50.534Z,28.30
2018-02-16T00:33:18.921Z,28.48
2018-02-16T00:35:47.290Z,26.55
2018-02-16T00:38:15.673Z,30.40
2018-02-16T00:40:44.037Z,28.05
2018-02-16T00:43:12.634Z,27.17
2018-02-16T00:45:41.013Z,28.40
2018-02-16T00:48:09.382Z,28.38
2018-02-16T00:50:37.787Z,28.27
2018-02-16T00:53:06.165Z,26.70
2018-02-16T00:55:34.557Z,29.05
2018-02-16T00:58:02.925Z,27.40
2018-02-16T01:00:31.341Z,27.77
2018-02-16T01:03:00.474Z,26.83
2018-02-16T01:05:28.841Z,25.23
2018-02-16T01:07:57.237Z,26.83
2018-02-16T01:10:25.622Z,26.48
2018-02-16T01:12:54.008Z,28.52
2018-02-16T01:15:22.381Z,25.30
2018-02-16T01:17:50.945Z,26.42
2018-02-16T01:20:19.305Z,26.40
2018-02-16T01:22:47.665Z,26.50
2018-02-16T01:25:16.814Z,28.67
2018-02-16T01:27:45.186Z,29.35
2018-02-16T01:30:13.571Z,25.80
2018-02-16T01:32:41.938Z,28.92
2018-02-16T01:35:10.517Z,26.80
2018-02-16T01:37:38.882Z,26.25
2018-02-16T01:40:07.245Z,26.48
2018-02-16T01:42:35.729Z,27.33
2018-02-16T01:45:04.102Z,27.08
2018-02-16T01:47:33.253Z,27.30
2018-02-16T01:50:09.373Z,28.17
2018-02-16T01:52:38.057Z,27.13
2018-02-16T01:55:06.418Z,24.40
2018-02-16T01:57:35.959Z,27.45
2018-02-16T02:00:04.341Z,26.62
2018-02-16T02:02:32.718Z,26.17
2018-02-16T02:05:01.113Z,25.80
2018-02-16T02:07:29.473Z,25.62
2018-02-16T02:09:57.867Z,25.10
2018-02-16T02:12:26.235Z,27.40
2018-02-16T02:14:55.021Z,24.98
2018-02-16T02:17:23.393Z,26.62
2018-02-16T02:19:51.753Z,25.33
2018-02-16T02:22:20.141Z,28.40
2018-02-16T02:24:48.511Z,27.55
2018-02-16T02:27:16.901Z,28.90
2018-02-16T02:29:45.296Z,24.20
2018-02-16T02:32:14.071Z,24.73
2018-02-16T02:34:42.428Z,26.08
2018-02-16T02:37:10.790Z,26.42
2018-02-16T02:39:39.940Z,26.55
2018-02-16T02:42:08.302Z,26.25
2018-02-16T02:44:36.729Z,22.90
2018-02-16T02:47:05.094Z,25.00
2018-02-16T02:49:33.504Z,25.90
2018-02-16T02:52:02.633Z,23.52
2018-02-16T02:54:30.996Z,22.67
2018-02-16T02:56:59.387Z,25.73
2018-02-16T02:59:27.761Z,26.00
2018-02-16T03:01:56.157Z,23.27
2018-02-16T03:04:24.526Z,24.05
2018-02-16T03:06:52.921Z,26.98
2018-02-16T03:09:21.284Z,25.37
2018-02-16T03:11:49.698Z,24.73
2018-02-16T03:14:18.134Z,23.85
2018-02-16T03:16:46.504Z,25.37
2018-02-16T03:19:14.890Z,25.55
2018-02-16T03:21:43.262Z,24.75
2018-02-16T03:24:11.645Z,24.90
2018-02-16T03:26:40.007Z,23.33
2018-02-16T03:29:09.342Z,22.65
2018-02-16T03:31:37.709Z,24.25
2018-02-16T03:34:06.069Z,22.70
2018-02-16T03:36:34.457Z,21.65
2018-02-16T03:39:02.825Z,23.92
2018-02-16T03:41:31.213Z,23.10
2018-02-16T03:43:59.574Z,21.62
2018-02-16T03:46:28.902Z,24.27
2018-02-16T03:48:57.273Z,22.75
2018-02-16T03:51:25.629Z,21.33
2018-02-16T03:53:54.781Z,22.67
2018-02-16T03:56:23.149Z,21.98
2018-02-16T03:58:51.645Z,21.33
2018-02-16T04:01:20.010Z,21.90
2018-02-16T04:03:48.590Z,20.17
2018-02-16T04:06:16.950Z,19.35
2018-02-16T04:08:45.329Z,19.83
2018-02-16T04:11:13.886Z,19.27
2018-02-16T04:13:43.038Z,19.10
2018-02-16T04:16:11.421Z,19.20
2018-02-16T04:18:39.784Z,18.80
2018-02-16T04:21:08.453Z,18.55
2018-02-16T04:23:36.821Z,18.25
2018-02-16T04:26:05.192Z,17.80
2018-02-16T04:28:33.577Z,17.77
2018-02-16T04:31:01.946Z,18.62
2018-02-16T04:33:30.337Z,18.75
2018-02-16T04:35:58.700Z,18.60
2018-02-16T04:38:27.309Z,18.87
2018-02-16T04:40:55.679Z,18.62
2018-02-16T04:43:24.047Z,18.37
2018-02-16T04:45:52.437Z,17.60
2018-02-16T04:48:20.800Z,17.55
2018-02-16T04:50:49.296Z,17.65
2018-02-16T04:53:17.661Z,18.48
2018-02-16T04:55:46.269Z,18.42
2018-02-16T04:58:14.637Z,19.40
2018-02-16T05:00:43.006Z,19.25
2018-02-16T05:03:11.393Z,18.50
2018-02-16T05:05:39.754Z,19.42
2018-02-16T05:08:08.153Z,18.08
2018-02-16T05:10:36.523Z,18.33
2018-02-16T05:13:04.933Z,19.17
2018-02-16T05:15:33.317Z,18.55
2018-02-16T05:18:01.681Z,18.85
2018-02-16T05:20:30.065Z,19.52
2018-02-16T05:22:58.433Z,17.62
2018-02-16T05:25:26.820Z,19.08
2018-02-16T05:27:55.198Z,18.67
2018-02-16T05:30:23.870Z,19.67
2018-02-16T05:32:52.237Z,20.15
2018-02-16T05:35:20.606Z,19.55
2018-02-16T05:37:48.998Z,18.50
2018-02-16T05:40:17.393Z,20.75
2018-02-16T05:42:45.776Z,19.70
2018-02-16T05:45:14.169Z,19.40
2018-02-16T05:47:43.362Z,18.67
2018-02-16T05:50:11.728Z,20.12
2018-02-16T05:52:40.103Z,19.73
2018-02-16T05:55:08.492Z,19.87
2018-02-16T05:57:36.862Z,20.25
2018-02-16T06:00:05.280Z,19.10
2018-02-16T06:02:33.653Z,18.67
2018-02-16T06:05:02.065Z,19.33
2018-02-16T06:07:30.430Z,18.98
2018-02-16T06:09:59.557Z,17.35
2018-02-16T06:12:27.946Z,19.12
2018-02-16T06:14:56.318Z,17.45
2018-02-16T06:17:24.713Z,20.77
2018-02-16T06:19:53.085Z,17.73
2018-02-16T06:22:21.445Z,19.42
2018-02-16T06:24:49.848Z,18.27
2018-02-16T06:27:18.210Z,18.87
2018-02-16T06:29:46.595Z,19.45
2018-02-16T06:32:14.988Z,20.05
2018-02-16T06:34:43.414Z,19.62
2018-02-16T06:37:12.656Z,18.35
2018-02-16T06:39:41.030Z,21.52
2018-02-16T06:42:09.517Z,20.37
2018-02-16T06:44:37.888Z,21.20
2018-02-16T06:47:06.281Z,20.80
2018-02-16T06:49:34.641Z,22.67
2018-02-16T06:52:03.354Z,20.55
2018-02-16T06:54:31.752Z,22.92
2018-02-16T06:57:00.139Z,21.40
2018-02-16T06:59:29.301Z,21.12
2018-02-16T07:01:57.688Z,20.62
2018-02-16T07:04:26.075Z,20.23
2018-02-16T07:06:55.953Z,22.37
2018-02-16T07:09:24.764Z,20.70
2018-02-16T07:11:53.138Z,21.35
2018-02-16T07:14:21.520Z,19.90
2018-02-16T07:16:49.921Z,19.50
2018-02-16T07:19:18.288Z,19.25
2018-02-16T07:21:46.814Z,18.75
2018-02-16T07:24:15.178Z,19.00
2018-02-16T07:26:44.516Z,19.75
2018-02-16T07:29:13.016Z,18.15
2018-02-16T07:31:42.917Z,16.77
2018-02-16T07:34:11.316Z,17.35
2018-02-16T07:36:39.702Z,16.87
2018-02-16T07:39:08.093Z,14.98
2018-02-16T07:41:36.456Z,17.87
2018-02-16T07:44:05.002Z,15.25
2018-02-16T07:46:33.366Z,15.73
2018-02-16T07:49:01.728Z,15.65
2018-02-16T07:51:30.882Z,14.20
2018-02-16T07:53:59.249Z,15.40
2018-02-16T07:56:27.637Z,13.13
2018-02-16T07:58:56.022Z,14.50
2018-02-16T08:01:24.433Z,14.32
2018-02-16T08:03:53.561Z,13.93
2018-02-16T08:06:21.927Z,15.70
2018-02-16T08:08:50.310Z,13.40
2018-02-16T08:11:18.673Z,13.93
2018-02-16T08:13:47.061Z,14.98
2018-02-16T08:16:15.432Z,14.63
2018-02-16T08:18:44.858Z,15.27
2018-02-16T08:21:13.261Z,13.90
2018-02-16T08:23:41.636Z,14.95
2018-02-16T08:26:10.034Z,13.23
2018-02-16T08:28:38.408Z,12.88
2018-02-16T08:31:06.793Z,14.63
2018-02-16T08:33:35.161Z,13.43
2018-02-16T08:36:03.565Z,11.68
2018-02-16T08:38:31.938Z,12.43
2018-02-16T08:41:00.306Z,12.35
2018-02-16T08:43:28.697Z,11.85
2018-02-16T08:45:58.322Z,12.15
2018-02-16T08:48:27.485Z,12.05
2018-02-16T08:50:55.847Z,9.23
2018-02-16T08:53:24.259Z,10.15
2018-02-16T08:55:52.626Z,10.20
2018-02-16T08:58:20.994Z,10.63
2018-02-16T09:00:49.388Z,9.25
2018-02-16T09:03:17.746Z,9.65
2018-02-16T09:05:46.149Z,8.80
2018-02-16T09:08:14.515Z,9.93
2018-02-16T09:10:43.134Z,9.20
2018-02-16T09:13:11.503Z,11.90
2018-02-16T09:15:40.641Z,10.55
2018-02-16T09:18:09.088Z,7.32
2018-02-16T09:20:37.468Z,9.20
2018-02-16T09:23:05.861Z,7.40
2018-02-16T09:25:34.221Z,8.80
2018-02-16T09:28:03.436Z,9.55
2018-02-16T09:30:31.799Z,9.40
2018-02-16T09:33:00.941Z,8.50
2018-02-16T09:35:34.477Z,8.90
2018-02-16T09:38:02.839Z,8.88
2018-02-16T09:40:31.233Z,8.15
2018-02-16T09:42:59.620Z,7.32
2018-02-16T09:45:28.773Z,9.75
2018-02-16T09:47:57.136Z,8.20
2018-02-16T09:50:25.501Z,7.68
2018-02-16T09:52:53.880Z,7.70
2018-02-16T09:55:22.233Z,7.57
2018-02-16T09:57:51.389Z,7.15
2018-02-16T10:00:19.753Z,7.15
2018-02-16T10:02:48.144Z,7.03
2018-02-16T10:05:16.562Z,7.28
2018-02-16T10:07:45.693Z,6.70
2018-02-16T10:10:14.074Z,6.95
2018-02-16T10:12:42.454Z,6.05
2018-02-16T10:15:10.843Z,7.00
2018-02-16T10:17:39.201Z,6.43
2018-02-16T10:20:07.989Z,6.05
2018-02-16T10:22:36.385Z,6.68
2018-02-16T10:25:04.772Z,6.18
2018-02-16T10:27:33.152Z,6.07
2018-02-16T10:30:01.549Z,5.45
2018-02-16T10:32:30.096Z,9.20
2018-02-16T10:34:58.462Z,6.62
2018-02-16T10:37:26.870Z,7.05
2018-02-16T10:39:55.258Z,10.32
2018-02-16T10:42:23.621Z,7.30
2018-02-16T10:44:52.005Z,5.45
2018-02-16T10:47:20.375Z,5.37
2018-02-16T10:49:48.799Z,6.57
2018-02-16T10:52:17.137Z,6.25
2018-02-16T10:54:45.829Z,8.85
2018-02-16T10:57:14.194Z,7.90
2018-02-16T10:59:42.573Z,5.05
2018-02-16T11:02:16.516Z,3.35
2018-02-16T11:04:50.382Z,3.65
2018-02-16T11:07:24.240Z,4.07
2018-02-16T11:09:53.372Z,3.15
2018-02-16T11:12:21.746Z,3.37
2018-02-16T11:14:50.100Z,4.12
2018-02-16T11:17:19.259Z,3.47
2018-02-16T11:19:47.623Z,3.97
2018-02-16T11:22:16.013Z,3.25
2018-02-16T11:24:44.368Z,3.55
2018-02-16T11:27:12.721Z,4.57
2018-02-16T11:29:41.875Z,6.50
2018-02-16T11:32:10.236Z,7.78
2018-02-16T11:34:38.643Z,3.92
2018-02-16T11:37:08.514Z,4.22
2018-02-16T11:39:36.921Z,3.70
2018-02-16T11:42:05.281Z,4.90
2018-02-16T11:44:33.650Z,4.68
2018-02-16T11:47:02.051Z,4.47
2018-02-16T11:49:30.408Z,3.90
2018-02-16T11:51:58.817Z,4.32
2018-02-16T11:54:27.334Z,5.45
2018-02-16T11:56:56.621Z,5.62
2018-02-16T11:59:25.006Z,3.87
2018-02-16T12:01:54.128Z,4.20
2018-02-16T12:04:22.586Z,4.85
2018-02-16T12:06:51.712Z,4.72
2018-02-16T12:09:20.104Z,4.22
2018-02-16T12:11:48.467Z,4.20
2018-02-16T12:14:17.267Z,4.50
2018-02-16T12:16:45.637Z,4.97
2018-02-16T12:19:13.995Z,4.30
2018-02-16T12:21:42.383Z,5.45
2018-02-16T12:24:10.738Z,4.78
2018-02-16T12:26:39.889Z,4.90
2018-02-16T12:29:08.246Z,5.37
2018-02-16T12:31:36.824Z,5.43
2018-02-16T12:34:05.176Z,4.78
2018-02-16T12:36:34.418Z,5.62
2018-02-16T12:39:02.804Z,5.00
2018-02-16T12:41:31.161Z,5.57
2018-02-16T12:43:59.556Z,5.65
2018-02-16T12:46:27.910Z,5.28
2018-02-16T12:48:56.496Z,5.43
2018-02-16T12:51:24.860Z,5.20
2018-02-16T12:53:53.216Z,5.45
2018-02-16T12:56:22.372Z,7.75
2018-02-16T12:58:50.755Z,9.35
2018-02-16T13:01:19.186Z,8.98
2018-02-16T13:03:47.555Z,7.57
2018-02-16T13:06:16.892Z,9.35
2018-02-16T13:08:45.288Z,8.02
2018-02-16T13:11:13.628Z,6.65
2018-02-16T13:13:42.013Z,7.90
2018-02-16T13:18:42.896Z,6.87
2018-02-16T13:21:11.260Z,5.90
2018-02-16T13:23:39.936Z,5.30
2018-02-16T13:26:08.293Z,6.82
2018-02-16T13:28:37.415Z,5.72
2018-02-16T13:31:05.788Z,5.85
2018-02-16T13:33:34.145Z,5.62
2018-02-16T13:36:03.285Z,6.15
2018-02-16T13:38:31.640Z,6.80
2018-02-16T13:41:00.069Z,6.85
2018-02-16T13:43:28.701Z,7.82
2018-02-16T13:45:57.289Z,5.35
2018-02-16T13:48:25.676Z,6.95
2018-02-16T13:50:54.038Z,6.40
2018-02-16T13:53:22.416Z,6.47
2018-02-16T13:55:50.780Z,5.87
2018-02-16T13:58:20.200Z,6.25
2018-02-16T14:00:48.580Z,6.62
2018-02-16T14:03:16.968Z,8.05
2018-02-16T14:05:45.367Z,7.50
2018-02-16T14:08:13.910Z,8.00
2018-02-16T14:10:42.316Z,7.00
2018-02-16T14:13:10.708Z,7.70
2018-02-16T14:15:39.272Z,8.02
2018-02-16T14:18:07.657Z,8.10
2018-02-16T14:20:36.044Z,8.52
2018-02-16T14:23:04.506Z,10.05
2018-02-16T14:25:32.870Z,9.48
2018-02-16T14:28:01.436Z,9.13
2018-02-16T14:30:30.570Z,9.60
2018-02-16T14:32:59.364Z,10.35
2018-02-16T14:35:27.758Z,10.20
2018-02-16T14:37:56.128Z,9.43
2018-02-16T14:40:24.528Z,8.82
2018-02-16T14:42:52.892Z,11.20
2018-02-16T14:45:22.579Z,10.77
2018-02-16T14:47:50.950Z,10.52
2018-02-16T14:50:19.433Z,12.35
2018-02-16T14:52:47.928Z,10.13
2018-02-16T14:55:16.323Z,12.90
2018-02-16T14:57:44.717Z,12.70
2018-02-16T15:00:13.085Z,12.07
2018-02-16T15:02:41.474Z,12.63
2018-02-16T15:05:09.847Z,12.65
2018-02-16T15:07:38.346Z,14.55
2018-02-16T15:10:07.469Z,12.50
2018-02-16T15:12:35.833Z,11.20
2018-02-16T15:15:05.061Z,12.05
2018-02-16T15:17:33.524Z,12.73
2018-02-16T15:20:02.035Z,15.38
2018-02-16T15:22:30.446Z,14.50
2018-02-16T15:24:58.931Z,12.88
2018-02-16T15:27:27.295Z,13.07
2018-02-16T15:29:55.658Z,13.35
2018-02-16T15:32:24.050Z,18.00
2018-02-16T15:34:52.434Z,14.68
2018-02-16T15:37:20.826Z,14.27
2018-02-16T15:39:49.368Z,14.70
2018-02-16T15:42:17.934Z,14.05
2018-02-16T15:44:46.326Z,15.18
2018-02-16T15:47:14.966Z,16.15
2018-02-16T15:49:44.142Z,14.02
2018-02-16T15:52:12.638Z,22.52
2018-02-16T15:54:42.270Z,15.60
2018-02-16T15:57:10.682Z,14.02
2018-02-16T15:59:39.467Z,14.10
2018-02-16T16:02:07.890Z,14.87
2018-02-16T16:04:36.276Z,15.10
2018-02-16T16:07:05.437Z,14.93
2018-02-16T16:09:33.802Z,13.30
2018-02-16T16:12:02.195Z,13.43
2018-02-16T16:14:30.562Z,13.88
2018-02-16T16:16:58.993Z,14.98
2018-02-16T16:19:28.121Z,14.82
2018-02-16T16:21:56.692Z,14.40
2018-02-16T16:24:25.161Z,13.30
2018-02-16T16:26:53.723Z,13.82
2018-02-16T16:29:22.899Z,15.85
2018-02-16T16:31:51.276Z,14.50
2018-02-16T16:34:19.826Z,15.48
2018-02-16T16:36:48.189Z,15.57
2018-02-16T16:39:16.570Z,16.10
2018-02-16T16:41:44.971Z,16.52
2018-02-16T16:44:13.335Z,15.30
2018-02-16T16:46:42.317Z,15.70
2018-02-16T16:49:10.813Z,17.08
2018-02-16T16:51:39.399Z,19.48
2018-02-16T16:54:07.764Z,18.12
2018-02-16T16:56:36.137Z,15.27
2018-02-16T16:59:04.538Z,16.92
2018-02-16T17:01:32.905Z,18.37
2018-02-16T17:04:01.326Z,21.52
2018-02-16T17:06:29.743Z,17.65
2018-02-16T17:08:58.132Z,15.48
2018-02-16T17:11:26.522Z,20.90
2018-02-16T17:13:56.833Z,20.05
2018-02-16T17:16:26.277Z,19.10
2018-02-16T17:18:54.759Z,17.48
2018-02-16T17:21:24.534Z,17.25
2018-02-16T17:23:52.912Z,19.15
2018-02-16T17:26:26.526Z,18.33
2018-02-16T17:29:12.438Z,19.98
2018-02-16T17:31:45.281Z,20.27
2018-02-16T17:34:14.597Z,17.95
2018-02-16T17:36:43.041Z,19.62
2018-02-16T17:39:12.358Z,17.87
2018-02-16T17:41:41.304Z,22.05
2018-02-16T17:44:09.699Z,24.02
2018-02-16T17:46:38.144Z,25.48
2018-02-16T17:49:06.829Z,20.73
2018-02-16T17:51:35.229Z,26.30
2018-02-16T17:54:03.650Z,25.40
2018-02-16T17:56:32.089Z,21.95
2018-02-16T17:59:00.462Z,59.25
2018-02-16T18:01:28.870Z,31.35
2018-02-16T18:03:57.998Z,29.92
2018-02-16T18:06:26.409Z,22.85
2018-02-16T18:08:54.774Z,23.90
2018-02-16T18:11:23.165Z,23.70
2018-02-16T18:13:51.561Z,23.77
2018-02-16T18:16:19.921Z,52.53
2018-02-16T18:18:48.346Z,24.20
2018-02-16T18:21:17.477Z,22.92
2018-02-16T18:23:46.373Z,21.23
2018-02-16T18:26:14.778Z,22.05
2018-02-16T18:28:44.662Z,19.42
2018-02-16T18:31:13.969Z,30.23
2018-02-16T18:33:42.369Z,25.55
2018-02-16T18:36:10.901Z,24.35
2018-02-16T18:38:39.279Z,24.67
2018-02-16T18:41:07.706Z,25.77
2018-02-16T18:43:36.105Z,25.62
2018-02-16T18:46:04.550Z,25.42
2018-02-16T18:48:32.946Z,21.98
2018-02-16T18:51:02.147Z,20.42
2018-02-16T18:53:31.971Z,18.40
2018-02-16T18:56:00.402Z,20.15
2018-02-16T18:58:28.959Z,21.12
2018-02-16T19:00:57.578Z,21.83
2018-02-16T19:03:26.188Z,24.55
2018-02-16T19:05:56.908Z,20.12
2018-02-16T19:08:25.583Z,20.95
2018-02-16T19:10:54.140Z,21.70
2018-02-16T19:13:22.750Z,22.25
2018-02-16T19:15:51.858Z,23.35
2018-02-16T19:18:20.257Z,23.33
2018-02-16T19:20:49.007Z,23.00
2018-02-16T19:23:17.466Z,24.90
2018-02-16T19:25:46.881Z,22.00
2018-02-16T19:28:16.171Z,22.70
2018-02-16T19:30:45.087Z,25.20
2018-02-16T19:33:15.457Z,29.58
2018-02-16T19:35:44.399Z,34.05
2018-02-16T19:38:12.994Z,36.25
2018-02-16T19:40:41.768Z,37.55
2018-02-16T19:43:11.991Z,35.42
2018-02-16T19:45:42.310Z,65.87
2018-02-16T19:48:10.694Z,112.80
2018-02-16T19:50:39.702Z,40.50
2018-02-16T19:53:08.515Z,34.55
2018-02-16T19:55:37.056Z,35.30
2018-02-16T19:58:06.664Z,31.27
2018-02-16T20:00:36.530Z,32.47
2018-02-16T20:03:05.922Z,32.13
2018-02-16T20:05:35.146Z,29.67
2018-02-16T20:08:04.930Z,27.40
2018-02-16T20:10:33.573Z,26.02
2018-02-16T20:13:02.802Z,27.50
2018-02-16T20:15:31.417Z,24.92
2018-02-16T20:18:00.418Z,23.73
2018-02-16T20:20:30.262Z,24.87
2018-02-16T20:22:58.830Z,25.42
2018-02-16T20:25:27.242Z,23.90
2018-02-16T20:27:56.066Z,25.05
2018-02-16T20:30:26.547Z,26.42
2018-02-16T20:32:56.708Z,27.23
2018-02-16T20:35:25.970Z,26.92
2018-02-16T20:37:54.948Z,27.00
2018-02-16T20:40:24.781Z,26.27
2018-02-16T20:42:53.310Z,25.92
2018-02-16T20:45:22.032Z,26.90
2018-02-16T20:47:51.332Z,25.58
2018-02-16T20:50:19.782Z,28.73
2018-02-16T20:52:49.670Z,32.17
2018-02-16T20:55:18.102Z,32.03
2018-02-16T20:57:47.302Z,28.33
2018-02-16T21:00:15.751Z,25.50
2018-02-16T21:02:44.264Z,27.95
2018-02-16T21:05:13.954Z,27.60
2018-02-16T21:07:42.853Z,26.35
2018-02-16T21:10:11.763Z,25.00
2018-02-16T21:12:40.519Z,28.38
2018-02-16T21:15:10.251Z,24.90
2018-02-16T21:17:39.900Z,24.83
2018-02-16T21:20:08.809Z,25.58
2018-02-16T21:22:37.209Z,26.40
2018-02-16T21:25:05.609Z,26.70
2018-02-16T21:27:34.011Z,27.40
2018-02-16T21:30:02.478Z,27.87
2018-02-16T21:32:30.977Z,27.55
2018-02-16T21:34:59.407Z,27.23
2018-02-16T21:37:27.872Z,29.20
2018-02-16T21:39:56.614Z,30.02
2018-02-16T21:42:25.178Z,31.25
2018-02-16T21:44:54.888Z,30.02
2018-02-16T21:47:23.278Z,31.12
2018-02-16T21:49:51.669Z,27.95
2018-02-16T21:52:20.046Z,30.80
2018-02-16T21:54:49.221Z,29.37
2018-02-16T21:57:17.590Z,27.10
2018-02-16T21:59:46.004Z,25.23
2018-02-16T22:02:14.386Z,24.40
2018-02-16T22:04:42.761Z,27.87
2018-02-16T22:07:11.158Z,25.10
2018-02-16T22:09:40.302Z,24.05
2018-02-16T22:12:09.034Z,26.48
2018-02-16T22:14:37.953Z,26.60
2018-02-16T22:17:06.328Z,23.62
2018-02-16T22:19:34.813Z,27.35
2018-02-16T22:22:03.293Z,26.90
2018-02-16T22:24:32.214Z,23.67
2018-02-16T22:27:00.699Z,22.13
2018-02-16T22:29:33.122Z,21.48
2018-02-16T22:32:02.267Z,22.37
2018-02-16T22:34:30.647Z,23.17
2018-02-16T22:36:59.170Z,19.42
2018-02-16T22:39:28.315Z,21.98
2018-02-16T22:41:56.761Z,19.65
2018-02-16T22:44:25.944Z,20.42
2018-02-16T22:46:54.678Z,22.17
2018-02-16T22:49:23.054Z,24.85
2018-02-16T22:51:51.957Z,24.85
2018-02-16T22:54:21.040Z,22.30
2018-02-16T22:56:49.873Z,23.98
2018-02-16T22:59:20.983Z,23.05
2018-02-16T23:01:49.366Z,22.52
2018-02-16T23:04:18.213Z,21.90
2018-02-16T23:06:47.390Z,21.90
2018-02-16T23:09:16.592Z,22.83
2018-02-16T23:11:48.902Z,23.65
2018-02-16T23:14:17.297Z,27.70
2018-02-16T23:16:45.682Z,26.90
2018-02-16T23:19:14.069Z,26.20
2018-02-16T23:21:42.845Z,29.05
2018-02-16T23:24:18.774Z,29.23
2018-02-16T23:26:48.457Z,28.87
2018-02-16T23:29:17.704Z,31.08
2018-02-16T23:32:08.227Z,29.05
2018-02-16T23:37:59.740Z,29.48
2018-02-16T23:40:30.676Z,28.48
2018-02-16T23:42:59.018Z,31.37
2018-02-16T23:45:28.142Z,29.20
2018-02-16T23:47:56.691Z,30.00
2018-02-16T23:50:25.069Z,30.45
2018-02-16T23:52:53.438Z,27.30
2018-02-16T23:55:21.838Z,28.27
2018-02-16T23:57:50.218Z,29.52
